createdAt,value
2024-02-06T00:00:18.283Z,595.0000
2024-02-06T00:01:20.511Z,595.0000
2024-02-06T00:02:22.583Z,593.0000
2024-02-06T00:03:24.618Z,600.0000
2024-02-06T00:04:26.755Z,596.0000
2024-02-06T00:05:28.834Z,593.0000
2024-02-06T00:06:30.980Z,593.0000
2024-02-06T00:07:36.156Z,595.0000
2024-02-06T00:08:35.674Z,598.0000
2024-02-06T00:09:37.673Z,596.0000
2024-02-06T00:10:39.901Z,598.0000
2024-02-06T00:11:42.102Z,597.0000
2024-02-06T00:12:44.222Z,597.0000
2024-02-06T00:13:46.375Z,593.0000
2024-02-06T00:14:46.447Z,586.0000
2024-02-06T00:15:48.623Z,586.0000
2024-02-06T00:16:50.793Z,589.0000
2024-02-06T00:17:53.065Z,589.0000
2024-02-06T00:18:55.266Z,590.0000
2024-02-06T00:19:57.480Z,592.0000
2024-02-06T00:20:59.552Z,591.0000
2024-02-06T00:22:01.812Z,594.0000
2024-02-06T00:23:04.003Z,592.0000
2024-02-06T00:24:06.246Z,592.0000
2024-02-06T00:25:08.585Z,594.0000
2024-02-06T00:26:10.692Z,595.0000
2024-02-06T00:27:12.914Z,593.0000
2024-02-06T00:28:15.169Z,591.0000
2024-02-06T00:29:17.347Z,590.0000
2024-02-06T00:30:19.579Z,587.0000
2024-02-06T00:31:19.619Z,587.0000
2024-02-06T00:32:21.776Z,587.0000
2024-02-06T00:33:24.042Z,586.0000
2024-02-06T00:34:26.163Z,584.0000
2024-02-06T00:35:28.238Z,585.0000
2024-02-06T00:36:30.229Z,585.0000
2024-02-06T00:37:32.342Z,586.0000
2024-02-06T00:38:34.444Z,591.0000
2024-02-06T00:39:36.568Z,595.0000
2024-02-06T00:40:38.808Z,598.0000
2024-02-06T00:41:40.828Z,604.0000
2024-02-06T00:42:42.934Z,604.0000
2024-02-06T00:43:45.112Z,602.0000
2024-02-06T00:44:47.149Z,603.0000
2024-02-06T00:45:49.248Z,601.0000
2024-02-06T00:46:51.358Z,600.0000
2024-02-06T00:47:53.719Z,596.0000
2024-02-06T00:48:55.955Z,589.0000
2024-02-06T00:49:58.074Z,589.0000
2024-02-06T00:51:00.315Z,590.0000
2024-02-06T00:52:02.349Z,592.0000
2024-02-06T00:53:04.532Z,593.0000
2024-02-06T00:54:06.703Z,596.0000
2024-02-06T00:55:09.031Z,598.0000
2024-02-06T00:56:11.116Z,596.0000
2024-02-06T00:57:13.281Z,594.0000
2024-02-06T00:58:15.577Z,589.0000
2024-02-06T00:59:15.549Z,591.0000
2024-02-06T01:00:17.732Z,591.0000
2024-02-06T01:01:20.097Z,591.0000
2024-02-06T01:02:22.156Z,591.0000
2024-02-06T01:03:24.408Z,588.0000
2024-02-06T01:04:26.739Z,586.0000
2024-02-06T01:05:28.856Z,587.0000
2024-02-06T01:06:31.183Z,588.0000
2024-02-06T01:07:33.564Z,587.0000
2024-02-06T01:08:35.704Z,587.0000
2024-02-06T01:09:37.948Z,586.0000
2024-02-06T01:10:38.279Z,589.0000
2024-02-06T01:11:40.385Z,590.0000
2024-02-06T01:12:42.661Z,591.0000
2024-02-06T01:13:44.976Z,585.0000
2024-02-06T01:14:47.119Z,586.0000
2024-02-06T01:15:49.379Z,588.0000
2024-02-06T01:16:51.746Z,588.0000
2024-02-06T01:17:53.908Z,591.0000
2024-02-06T01:18:56.251Z,593.0000
2024-02-06T01:19:58.482Z,591.0000
2024-02-06T01:21:00.650Z,592.0000
2024-02-06T01:22:02.937Z,590.0000
2024-02-06T01:23:05.093Z,587.0000
2024-02-06T01:24:07.350Z,586.0000
2024-02-06T01:25:09.538Z,584.0000
2024-02-06T01:26:11.752Z,582.0000
2024-02-06T01:27:11.857Z,582.0000
2024-02-06T01:28:14.111Z,581.0000
2024-02-06T01:29:16.279Z,581.0000
2024-02-06T01:30:21.364Z,580.0000
2024-02-06T01:31:20.725Z,581.0000
2024-02-06T01:32:22.918Z,580.0000
2024-02-06T01:33:25.158Z,581.0000
2024-02-06T01:34:27.450Z,580.0000
2024-02-06T01:35:29.545Z,582.0000
2024-02-06T01:36:31.735Z,581.0000
2024-02-06T01:37:33.958Z,584.0000
2024-02-06T01:38:36.200Z,582.0000
2024-02-06T01:39:38.403Z,583.0000
2024-02-06T01:40:40.714Z,580.0000
2024-02-06T01:41:40.733Z,581.0000
2024-02-06T01:42:43.011Z,586.0000
2024-02-06T01:43:45.255Z,587.0000
2024-02-06T01:44:47.441Z,586.0000
2024-02-06T01:45:49.657Z,586.0000
2024-02-06T01:46:51.890Z,586.0000
2024-02-06T01:47:54.185Z,583.0000
2024-02-06T01:48:56.364Z,579.0000
2024-02-06T01:49:58.624Z,581.0000
2024-02-06T01:51:00.682Z,579.0000
2024-02-06T01:52:02.936Z,583.0000
2024-02-06T01:53:05.093Z,581.0000
2024-02-06T01:54:07.308Z,582.0000
2024-02-06T01:55:07.467Z,582.0000
2024-02-06T01:56:09.661Z,581.0000
2024-02-06T01:57:11.900Z,579.0000
2024-02-06T01:58:14.181Z,576.0000
2024-02-06T01:59:16.379Z,574.0000
2024-02-06T02:00:18.609Z,573.0000
2024-02-06T02:01:20.945Z,571.0000
2024-02-06T02:02:23.135Z,573.0000
2024-02-06T02:03:25.366Z,574.0000
2024-02-06T02:04:27.911Z,574.0000
2024-02-06T02:06:13.079Z,571.0000
2024-02-06T02:07:15.053Z,562.0000
2024-02-06T02:08:17.085Z,562.0000
2024-02-06T02:09:19.352Z,561.0000
2024-02-06T02:10:21.490Z,558.0000
2024-02-06T02:11:23.676Z,562.0000
2024-02-06T02:12:25.866Z,564.0000
2024-02-06T02:13:26.081Z,563.0000
2024-02-06T02:14:28.217Z,564.0000
2024-02-06T02:15:30.423Z,560.0000
2024-02-06T02:16:32.709Z,561.0000
2024-02-06T02:17:34.854Z,564.0000
2024-02-06T02:18:37.179Z,563.0000
2024-02-06T02:19:39.317Z,565.0000
2024-02-06T02:20:41.388Z,564.0000
2024-02-06T02:21:43.551Z,560.0000
2024-02-06T02:22:45.835Z,563.0000
2024-02-06T02:23:47.944Z,569.0000
2024-02-06T02:24:50.144Z,567.0000
2024-02-06T02:25:52.324Z,565.0000
2024-02-06T02:26:54.505Z,565.0000
2024-02-06T02:27:56.727Z,567.0000
2024-02-06T02:28:58.901Z,568.0000
2024-02-06T02:30:01.111Z,567.0000
2024-02-06T02:31:03.232Z,568.0000
2024-02-06T02:32:05.292Z,568.0000
2024-02-06T02:33:07.574Z,567.0000
2024-02-06T02:34:09.685Z,566.0000
2024-02-06T02:35:11.804Z,565.0000
2024-02-06T02:36:13.919Z,562.0000
2024-02-06T02:37:16.176Z,561.0000
2024-02-06T02:38:18.237Z,562.0000
2024-02-06T02:39:20.384Z,558.0000
2024-02-06T02:40:22.563Z,561.0000
2024-02-06T02:41:24.708Z,564.0000
2024-02-06T02:42:26.825Z,563.0000
2024-02-06T02:43:29.038Z,563.0000
2024-02-06T02:44:31.107Z,564.0000
2024-02-06T02:45:33.271Z,566.0000
2024-02-06T02:46:35.665Z,566.0000
2024-02-06T02:47:37.708Z,567.0000
2024-02-06T02:48:39.906Z,569.0000
2024-02-06T02:49:42.117Z,570.0000
2024-02-06T02:50:44.149Z,570.0000
2024-02-06T02:51:46.338Z,573.0000
2024-02-06T02:52:48.522Z,575.0000
2024-02-06T02:53:50.694Z,572.0000
2024-02-06T02:54:52.891Z,569.0000
2024-02-06T02:55:55.036Z,567.0000
2024-02-06T02:56:57.245Z,569.0000
2024-02-06T02:57:59.382Z,568.0000
2024-02-06T02:59:01.568Z,565.0000
2024-02-06T03:00:03.734Z,562.0000
2024-02-06T03:01:05.962Z,563.0000
2024-02-06T03:02:08.155Z,566.0000
2024-02-06T03:03:10.297Z,567.0000
2024-02-06T03:04:12.445Z,568.0000
2024-02-06T03:05:14.683Z,573.0000
2024-02-06T03:06:16.933Z,567.0000
2024-02-06T03:07:19.065Z,563.0000
2024-02-06T03:08:18.954Z,562.0000
2024-02-06T03:09:21.147Z,564.0000
2024-02-06T03:10:23.356Z,562.0000
2024-02-06T03:11:25.465Z,560.0000
2024-02-06T03:12:27.657Z,559.0000
2024-02-06T03:13:29.893Z,560.0000
2024-02-06T03:14:32.006Z,562.0000
2024-02-06T03:15:34.227Z,561.0000
2024-02-06T03:16:36.479Z,561.0000
2024-02-06T03:17:38.625Z,563.0000
2024-02-06T03:18:40.818Z,566.0000
2024-02-06T03:19:43.089Z,567.0000
2024-02-06T03:20:45.230Z,566.0000
2024-02-06T03:21:47.409Z,562.0000
2024-02-06T03:22:49.642Z,1383.0000
2024-02-06T03:23:51.934Z,1109.0000
2024-02-06T03:24:54.101Z,842.0000
2024-02-06T03:25:56.245Z,672.0000
2024-02-06T03:26:58.458Z,664.0000
2024-02-06T03:28:00.763Z,671.0000
2024-02-06T03:29:00.764Z,675.0000
2024-02-06T03:30:02.973Z,668.0000
2024-02-06T03:31:05.212Z,663.0000
2024-02-06T03:32:07.413Z,656.0000
2024-02-06T03:33:09.718Z,638.0000
2024-02-06T03:34:11.992Z,633.0000
2024-02-06T03:35:13.994Z,627.0000
2024-02-06T03:36:16.117Z,621.0000
2024-02-06T03:37:18.347Z,615.0000
2024-02-06T03:38:20.544Z,609.0000
2024-02-06T03:39:22.845Z,613.0000
2024-02-06T03:40:25.011Z,611.0000
2024-02-06T03:41:27.197Z,608.0000
2024-02-06T03:42:29.480Z,602.0000
2024-02-06T03:43:29.661Z,602.0000
2024-02-06T03:44:31.776Z,598.0000
2024-02-06T03:45:33.973Z,595.0000
2024-02-06T03:46:36.290Z,595.0000
2024-02-06T03:47:38.514Z,595.0000
2024-02-06T03:48:40.820Z,594.0000
2024-02-06T03:49:42.980Z,594.0000
2024-02-06T03:50:45.231Z,597.0000
2024-02-06T03:51:47.465Z,598.0000
2024-02-06T03:52:49.713Z,590.0000
2024-02-06T03:53:51.992Z,584.0000
2024-02-06T03:54:52.169Z,588.0000
2024-02-06T03:55:54.228Z,588.0000
2024-02-06T03:56:56.389Z,585.0000
2024-02-06T03:57:58.623Z,584.0000
2024-02-06T03:59:00.812Z,582.0000
2024-02-06T04:00:02.984Z,579.0000
2024-02-06T04:01:05.281Z,578.0000
2024-02-06T04:02:07.421Z,578.0000
2024-02-06T04:03:09.553Z,577.0000
2024-02-06T04:04:14.024Z,576.0000
2024-02-06T04:05:14.023Z,572.0000
2024-02-06T04:06:16.209Z,571.0000
2024-02-06T04:07:18.601Z,574.0000
2024-02-06T04:08:20.661Z,573.0000
2024-02-06T04:09:22.929Z,574.0000
2024-02-06T04:10:25.205Z,573.0000
2024-02-06T04:11:27.364Z,572.0000
2024-02-06T04:12:29.624Z,572.0000
2024-02-06T04:13:31.960Z,571.0000
2024-02-06T04:14:34.075Z,572.0000
2024-02-06T04:15:36.342Z,569.0000
2024-02-06T04:16:38.680Z,1269.0000
2024-02-06T04:17:40.809Z,1632.0000
2024-02-06T04:18:43.040Z,1285.0000
2024-02-06T04:19:45.318Z,1141.0000
2024-02-06T04:20:47.396Z,1042.0000
2024-02-06T04:21:49.590Z,1031.0000
2024-02-06T04:22:51.784Z,1023.0000
2024-02-06T04:23:51.921Z,997.0000
2024-02-06T04:24:54.104Z,941.0000
2024-02-06T04:25:56.253Z,898.0000
2024-02-06T04:26:58.416Z,869.0000
2024-02-06T04:28:00.686Z,841.0000
2024-02-06T04:29:02.781Z,817.0000
2024-02-06T04:30:05.031Z,795.0000
2024-02-06T04:31:07.209Z,555.0000
2024-02-06T04:32:09.487Z,554.0000
2024-02-06T04:33:11.769Z,568.0000
2024-02-06T04:34:14.081Z,635.0000
2024-02-06T04:35:16.314Z,645.0000
2024-02-06T04:36:18.447Z,643.0000
2024-02-06T04:37:20.690Z,650.0000
2024-02-06T04:38:20.792Z,649.0000
2024-02-06T04:39:23.039Z,641.0000
2024-02-06T04:40:25.350Z,635.0000
2024-02-06T04:41:27.558Z,632.0000
2024-02-06T04:42:29.748Z,634.0000
2024-02-06T04:43:31.971Z,638.0000
2024-02-06T04:44:34.154Z,642.0000
2024-02-06T04:45:36.405Z,647.0000
2024-02-06T04:46:37.455Z,645.0000
2024-02-06T04:47:38.587Z,646.0000
2024-02-06T04:48:40.812Z,649.0000
2024-02-06T04:49:43.306Z,659.0000
2024-02-06T04:50:45.217Z,676.0000
2024-02-06T04:51:47.435Z,688.0000
2024-02-06T04:52:49.710Z,701.0000
2024-02-06T04:53:49.720Z,706.0000
2024-02-06T04:54:52.081Z,707.0000
2024-02-06T04:55:54.166Z,704.0000
2024-02-06T04:56:56.383Z,703.0000
2024-02-06T04:57:58.593Z,695.0000
2024-02-06T04:59:00.784Z,691.0000
2024-02-06T05:00:02.994Z,692.0000
2024-02-06T05:01:05.276Z,691.0000
2024-02-06T05:02:07.453Z,689.0000
2024-02-06T05:03:09.603Z,674.0000
2024-02-06T05:04:11.883Z,669.0000
2024-02-06T05:05:14.110Z,674.0000
2024-02-06T05:06:16.314Z,671.0000
2024-02-06T05:07:18.627Z,665.0000
2024-02-06T05:08:20.659Z,666.0000
2024-02-06T05:09:20.724Z,666.0000
2024-02-06T05:10:22.995Z,666.0000
2024-02-06T05:11:25.171Z,661.0000
2024-02-06T05:12:27.368Z,654.0000
2024-02-06T05:13:29.558Z,653.0000
2024-02-06T05:14:31.667Z,651.0000
2024-02-06T05:15:33.893Z,648.0000
2024-02-06T05:16:36.199Z,646.0000
2024-02-06T05:17:38.418Z,642.0000
2024-02-06T05:18:40.673Z,643.0000
2024-02-06T05:19:43.050Z,645.0000
2024-02-06T05:20:45.042Z,644.0000
2024-02-06T05:21:47.277Z,637.0000
2024-02-06T05:22:49.457Z,639.0000
2024-02-06T05:24:41.105Z,617.0000
2024-02-06T05:25:41.193Z,612.0000
2024-02-06T05:26:43.316Z,613.0000
2024-02-06T05:27:45.555Z,614.0000
2024-02-06T05:28:47.767Z,614.0000
2024-02-06T05:29:49.975Z,620.0000
2024-02-06T05:30:52.184Z,621.0000
2024-02-06T05:31:54.344Z,625.0000
2024-02-06T05:32:56.546Z,631.0000
2024-02-06T05:33:58.795Z,633.0000
2024-02-06T05:35:01.008Z,635.0000
2024-02-06T05:36:03.137Z,636.0000
2024-02-06T05:37:05.396Z,638.0000
2024-02-06T05:38:07.585Z,637.0000
2024-02-06T05:39:09.758Z,638.0000
2024-02-06T05:40:12.136Z,639.0000
2024-02-06T05:41:14.189Z,644.0000
2024-02-06T05:42:16.373Z,647.0000
2024-02-06T05:43:16.506Z,646.0000
2024-02-06T05:44:18.672Z,650.0000
2024-02-06T05:45:20.884Z,654.0000
2024-02-06T05:46:23.088Z,654.0000
2024-02-06T05:47:25.292Z,658.0000
2024-02-06T05:48:27.495Z,660.0000
2024-02-06T05:49:29.774Z,658.0000
2024-02-06T05:50:32.196Z,659.0000
2024-02-06T05:51:34.096Z,663.0000
2024-02-06T05:52:36.443Z,666.0000
2024-02-06T05:53:48.814Z,668.0000
2024-02-06T05:54:48.220Z,673.0000
2024-02-06T05:55:50.390Z,679.0000
2024-02-06T05:56:52.545Z,675.0000
2024-02-06T05:57:54.895Z,676.0000
2024-02-06T05:58:56.975Z,672.0000
2024-02-06T05:59:59.098Z,677.0000
2024-02-06T06:01:01.477Z,690.0000
2024-02-06T06:02:03.628Z,712.0000
2024-02-06T06:03:05.749Z,716.0000
2024-02-06T06:04:08.170Z,715.0000
2024-02-06T06:05:10.387Z,716.0000
2024-02-06T06:06:12.605Z,714.0000
2024-02-06T06:07:14.777Z,716.0000
2024-02-06T06:08:16.950Z,717.0000
2024-02-06T06:09:19.254Z,726.0000
2024-02-06T06:10:21.515Z,731.0000
2024-02-06T06:11:21.552Z,749.0000
2024-02-06T06:12:23.814Z,758.0000
2024-02-06T06:13:26.144Z,768.0000
2024-02-06T06:14:28.412Z,777.0000
2024-02-06T06:15:28.516Z,782.0000
2024-02-06T06:16:30.804Z,781.0000
2024-02-06T06:17:33.124Z,776.0000
2024-02-06T06:18:35.332Z,773.0000
2024-02-06T06:19:35.579Z,772.0000
2024-02-06T06:20:37.702Z,774.0000
2024-02-06T06:21:43.567Z,770.0000
2024-02-06T06:22:42.293Z,767.0000
2024-02-06T06:23:44.478Z,768.0000
2024-02-06T06:24:46.843Z,766.0000
2024-02-06T06:25:49.028Z,760.0000
2024-02-06T06:26:51.271Z,758.0000
2024-02-06T06:27:51.383Z,755.0000
2024-02-06T06:28:53.649Z,756.0000
2024-02-06T06:29:55.922Z,757.0000
2024-02-06T06:30:58.177Z,755.0000
2024-02-06T06:31:58.264Z,757.0000
2024-02-06T06:33:00.608Z,751.0000
2024-02-06T06:34:02.872Z,742.0000
2024-02-06T06:35:05.145Z,734.0000
2024-02-06T06:36:07.182Z,728.0000
2024-02-06T06:37:07.285Z,721.0000
2024-02-06T06:38:09.440Z,725.0000
2024-02-06T06:39:11.666Z,733.0000
2024-02-06T06:40:13.975Z,740.0000
2024-02-06T06:41:16.168Z,745.0000
2024-02-06T06:42:18.443Z,751.0000
2024-02-06T06:43:20.743Z,755.0000
2024-02-06T06:44:22.929Z,756.0000
2024-02-06T06:45:25.236Z,760.0000
2024-02-06T06:46:27.501Z,762.0000
2024-02-06T06:47:29.742Z,762.0000
2024-02-06T06:48:32.019Z,761.0000
2024-02-06T06:49:34.273Z,759.0000
2024-02-06T06:50:36.363Z,756.0000
2024-02-06T06:51:38.550Z,751.0000
2024-02-06T06:52:40.889Z,749.0000
2024-02-06T06:53:43.001Z,748.0000
2024-02-06T06:54:45.320Z,751.0000
2024-02-06T06:55:47.556Z,754.0000
2024-02-06T06:56:49.688Z,754.0000
2024-02-06T06:57:51.902Z,757.0000
2024-02-06T06:58:54.132Z,759.0000
2024-02-06T06:59:56.351Z,760.0000
2024-02-06T07:00:58.721Z,760.0000
2024-02-06T07:02:00.913Z,763.0000
2024-02-06T07:03:00.926Z,765.0000
2024-02-06T07:04:03.118Z,767.0000
2024-02-06T07:05:05.464Z,766.0000
2024-02-06T07:06:07.653Z,767.0000
2024-02-06T07:07:09.833Z,765.0000
2024-02-06T07:08:09.833Z,763.0000
2024-02-06T07:09:12.051Z,760.0000
2024-02-06T07:10:14.304Z,770.0000
2024-02-06T07:11:16.545Z,768.0000
2024-02-06T07:12:18.682Z,771.0000
2024-02-06T07:13:18.817Z,768.0000
2024-02-06T07:14:21.015Z,767.0000
2024-02-06T07:15:23.353Z,763.0000
2024-02-06T07:16:25.596Z,767.0000
2024-02-06T07:17:25.646Z,768.0000
2024-02-06T07:18:28.006Z,766.0000
2024-02-06T07:19:30.326Z,767.0000
2024-02-06T07:20:32.396Z,768.0000
2024-02-06T07:21:34.687Z,769.0000
2024-02-06T07:22:37.027Z,765.0000
2024-02-06T07:23:39.180Z,764.0000
2024-02-06T07:24:41.435Z,765.0000
2024-02-06T07:25:43.760Z,764.0000
2024-02-06T07:26:45.894Z,758.0000
2024-02-06T07:27:48.028Z,754.0000
2024-02-06T07:28:50.346Z,751.0000
2024-02-06T07:29:52.521Z,749.0000
2024-02-06T07:30:52.692Z,748.0000
2024-02-06T07:31:54.875Z,749.0000
2024-02-06T07:32:57.094Z,746.0000
2024-02-06T07:33:59.382Z,750.0000
2024-02-06T07:35:01.864Z,747.0000
2024-02-06T07:36:03.714Z,739.0000
2024-02-06T07:37:05.993Z,731.0000
2024-02-06T07:38:09.037Z,722.0000
2024-02-06T07:39:10.405Z,716.0000
2024-02-06T07:40:12.679Z,715.0000
2024-02-06T07:41:14.864Z,717.0000
2024-02-06T07:42:17.086Z,715.0000
2024-02-06T07:43:20.812Z,717.0000
2024-02-06T07:44:19.369Z,717.0000
2024-02-06T07:45:21.577Z,717.0000
2024-02-06T07:46:23.825Z,716.0000
2024-02-06T07:47:26.087Z,718.0000
2024-02-06T07:48:28.324Z,711.0000
2024-02-06T07:49:28.391Z,711.0000
2024-02-06T07:50:30.540Z,708.0000
2024-02-06T07:51:32.720Z,697.0000
2024-02-06T07:52:35.028Z,703.0000
2024-02-06T07:53:37.162Z,704.0000
2024-02-06T07:54:37.268Z,701.0000
2024-02-06T07:55:39.586Z,708.0000
2024-02-06T07:56:41.725Z,707.0000
2024-02-06T07:57:43.976Z,705.0000
2024-02-06T07:58:46.249Z,700.0000
2024-02-06T07:59:48.448Z,698.0000
2024-02-06T08:00:50.764Z,697.0000
2024-02-06T08:01:53.096Z,695.0000
2024-02-06T08:02:53.152Z,695.0000
2024-02-06T08:03:55.444Z,693.0000
2024-02-06T08:04:57.736Z,696.0000
2024-02-06T08:05:59.981Z,692.0000
2024-02-06T08:07:02.140Z,689.0000
2024-02-06T08:08:04.263Z,687.0000
2024-02-06T08:09:06.414Z,690.0000
2024-02-06T08:10:08.658Z,684.0000
2024-02-06T08:11:10.830Z,690.0000
2024-02-06T08:12:13.039Z,685.0000
2024-02-06T08:13:15.290Z,686.0000
2024-02-06T08:14:17.406Z,681.0000
2024-02-06T08:15:19.621Z,681.0000
2024-02-06T08:16:21.836Z,678.0000
2024-02-06T08:17:21.902Z,680.0000
2024-02-06T08:18:24.303Z,676.0000
2024-02-06T08:19:26.324Z,675.0000
2024-02-06T08:20:28.538Z,673.0000
2024-02-06T08:21:30.716Z,667.0000
2024-02-06T08:22:30.887Z,665.0000
2024-02-06T08:23:33.068Z,670.0000
2024-02-06T08:24:35.297Z,669.0000
2024-02-06T08:25:37.548Z,668.0000
2024-02-06T08:26:39.755Z,667.0000
2024-02-06T08:27:39.817Z,663.0000
2024-02-06T08:28:42.099Z,658.0000
2024-02-06T08:29:44.269Z,659.0000
2024-02-06T08:30:46.489Z,665.0000
2024-02-06T08:31:48.849Z,666.0000
2024-02-06T08:32:51.001Z,662.0000
2024-02-06T08:33:53.182Z,661.0000
2024-02-06T08:34:55.520Z,656.0000
2024-02-06T08:35:57.810Z,647.0000
2024-02-06T08:36:57.791Z,648.0000
2024-02-06T08:38:00.028Z,643.0000
2024-02-06T08:39:02.306Z,636.0000
2024-02-06T08:40:04.450Z,628.0000
2024-02-06T08:41:06.606Z,622.0000
2024-02-06T08:42:08.827Z,612.0000
2024-02-06T08:43:11.628Z,602.0000
2024-02-06T08:44:13.296Z,591.0000
2024-02-06T08:45:15.426Z,584.0000
2024-02-06T08:46:17.672Z,588.0000
2024-02-06T08:47:19.740Z,583.0000
2024-02-06T08:48:21.958Z,580.0000
2024-02-06T08:49:24.246Z,581.0000
2024-02-06T08:50:26.372Z,581.0000
2024-02-06T08:51:28.530Z,580.0000
2024-02-06T08:52:30.786Z,580.0000
2024-02-06T08:53:32.933Z,581.0000
2024-02-06T08:54:35.173Z,579.0000
2024-02-06T08:55:37.374Z,578.0000
2024-02-06T08:56:37.403Z,577.0000
2024-02-06T08:57:39.606Z,572.0000
2024-02-06T08:58:41.809Z,573.0000
2024-02-06T08:59:44.034Z,574.0000
2024-02-06T09:00:46.253Z,575.0000
2024-02-06T09:01:46.383Z,570.0000
2024-02-06T09:02:48.470Z,570.0000
2024-02-06T09:03:50.650Z,573.0000
2024-02-06T09:04:52.942Z,571.0000
2024-02-06T09:05:55.227Z,570.0000
2024-02-06T09:06:57.412Z,570.0000
2024-02-06T09:07:59.512Z,572.0000
2024-02-06T09:09:01.737Z,570.0000
2024-02-06T09:10:04.019Z,566.0000
2024-02-06T09:11:06.183Z,566.0000
2024-02-06T09:12:06.242Z,561.0000
2024-02-06T09:13:08.438Z,558.0000
2024-02-06T09:14:10.684Z,554.0000
2024-02-06T09:15:12.915Z,552.0000
2024-02-06T09:16:15.104Z,556.0000
2024-02-06T09:17:15.103Z,559.0000
2024-02-06T09:18:17.347Z,563.0000
2024-02-06T09:19:19.528Z,559.0000
2024-02-06T09:20:21.778Z,559.0000
2024-02-06T09:21:23.828Z,559.0000
2024-02-06T09:22:26.064Z,557.0000
2024-02-06T09:23:28.219Z,552.0000
2024-02-06T09:24:30.399Z,549.0000
2024-02-06T09:25:32.660Z,551.0000
2024-02-06T09:26:34.779Z,555.0000
2024-02-06T09:27:37.662Z,554.0000
2024-02-06T09:28:39.126Z,553.0000
2024-02-06T09:29:41.315Z,548.0000
2024-02-06T09:30:43.544Z,546.0000
2024-02-06T09:31:45.712Z,546.0000
2024-02-06T09:32:47.943Z,548.0000
2024-02-06T09:33:48.001Z,544.0000
2024-02-06T09:34:50.230Z,545.0000
2024-02-06T09:35:53.063Z,546.0000
2024-02-06T09:36:54.517Z,540.0000
2024-02-06T09:37:56.717Z,543.0000
2024-02-06T09:38:58.902Z,543.0000
2024-02-06T09:40:01.134Z,545.0000
2024-02-06T09:41:03.542Z,544.0000
2024-02-06T09:42:05.424Z,543.0000
2024-02-06T09:43:08.290Z,545.0000
2024-02-06T09:44:10.930Z,543.0000
2024-02-06T09:45:11.959Z,543.0000
2024-02-06T09:46:14.201Z,540.0000
2024-02-06T09:47:17.434Z,539.0000
2024-02-06T09:48:18.595Z,539.0000
2024-02-06T09:49:20.841Z,542.0000
2024-02-06T09:50:22.906Z,542.0000
2024-02-06T09:51:25.148Z,543.0000
2024-02-06T09:52:27.306Z,542.0000
2024-02-06T09:53:29.464Z,539.0000
2024-02-06T09:54:31.661Z,542.0000
2024-02-06T09:55:33.979Z,539.0000
2024-02-06T09:56:36.102Z,542.0000
2024-02-06T09:57:38.290Z,541.0000
2024-02-06T09:58:40.517Z,540.0000
2024-02-06T09:59:42.670Z,540.0000
2024-02-06T10:00:44.975Z,535.0000
2024-02-06T10:01:47.307Z,533.0000
2024-02-06T10:02:49.417Z,527.0000
2024-02-06T10:03:51.677Z,523.0000
2024-02-06T10:04:54.137Z,522.0000
2024-02-06T10:05:56.150Z,522.0000
2024-02-06T10:06:58.460Z,520.0000
2024-02-06T10:07:58.442Z,522.0000
2024-02-06T10:09:00.690Z,520.0000
2024-02-06T10:10:03.016Z,524.0000
2024-02-06T10:11:05.206Z,523.0000
2024-02-06T10:12:07.471Z,525.0000
2024-02-06T10:13:09.690Z,521.0000
2024-02-06T10:14:11.816Z,525.0000
2024-02-06T10:15:14.008Z,518.0000
2024-02-06T10:16:16.232Z,527.0000
2024-02-06T10:17:18.397Z,521.0000
2024-02-06T10:18:20.608Z,519.0000
2024-02-06T10:19:22.756Z,520.0000
2024-02-06T10:20:24.853Z,515.0000
2024-02-06T10:21:29.260Z,515.0000
2024-02-06T10:22:29.349Z,515.0000
2024-02-06T10:23:31.570Z,519.0000
2024-02-06T10:24:33.845Z,517.0000
2024-02-06T10:25:35.957Z,520.0000
2024-02-06T10:26:38.140Z,523.0000
2024-02-06T10:27:38.263Z,522.0000
2024-02-06T10:28:40.530Z,522.0000
2024-02-06T10:29:42.632Z,522.0000
2024-02-06T10:30:44.836Z,519.0000
2024-02-06T10:31:47.147Z,517.0000
2024-02-06T10:32:49.223Z,518.0000
2024-02-06T10:33:51.566Z,519.0000
2024-02-06T10:34:53.689Z,519.0000
2024-02-06T10:35:55.857Z,519.0000
2024-02-06T10:36:58.088Z,519.0000
2024-02-06T10:38:00.337Z,520.0000
2024-02-06T10:39:02.364Z,515.0000
2024-02-06T10:40:04.578Z,519.0000
2024-02-06T10:41:17.169Z,517.0000
2024-02-06T10:42:37.318Z,515.0000
2024-02-06T10:43:37.629Z,513.0000
2024-02-06T10:44:13.193Z,517.0000
2024-02-06T10:45:16.075Z,519.0000
2024-02-06T10:46:18.138Z,514.0000
2024-02-06T10:47:19.640Z,518.0000
2024-02-06T10:48:21.937Z,515.0000
2024-02-06T10:49:24.122Z,513.0000
2024-02-06T10:50:26.342Z,512.0000
2024-02-06T10:51:30.060Z,513.0000
2024-02-06T10:52:30.638Z,511.0000
2024-02-06T10:53:32.848Z,511.0000
2024-02-06T10:54:32.866Z,513.0000
2024-02-06T10:55:35.106Z,511.0000
2024-02-06T10:56:37.257Z,508.0000
2024-02-06T10:57:39.431Z,507.0000
2024-02-06T10:58:41.728Z,506.0000
2024-02-06T10:59:43.746Z,503.0000
2024-02-06T11:00:45.920Z,504.0000
2024-02-06T11:01:48.062Z,504.0000
2024-02-06T11:02:50.165Z,509.0000
2024-02-06T11:03:52.410Z,503.0000
2024-02-06T11:04:54.496Z,503.0000
2024-02-06T11:05:56.702Z,503.0000
2024-02-06T11:06:58.862Z,501.0000
2024-02-06T11:08:00.963Z,505.0000
2024-02-06T11:09:03.096Z,502.0000
2024-02-06T11:10:05.202Z,499.0000
2024-02-06T11:11:07.309Z,496.0000
2024-02-06T11:12:09.921Z,497.0000
2024-02-06T11:13:11.656Z,502.0000
2024-02-06T11:14:13.811Z,497.0000
2024-02-06T11:15:15.937Z,499.0000
2024-02-06T11:16:18.096Z,501.0000
2024-02-06T11:17:20.180Z,505.0000
2024-02-06T11:18:22.452Z,508.0000
2024-02-06T11:19:24.732Z,510.0000
2024-02-06T11:20:24.574Z,512.0000
2024-02-06T11:21:28.837Z,512.0000
2024-02-06T11:22:28.849Z,514.0000
2024-02-06T11:23:30.946Z,520.0000
2024-02-06T11:24:33.147Z,524.0000
2024-02-06T11:25:35.297Z,520.0000
2024-02-06T11:26:37.459Z,521.0000
2024-02-06T11:27:39.609Z,526.0000
2024-02-06T11:28:41.867Z,526.0000
2024-02-06T11:29:44.055Z,529.0000
2024-02-06T11:30:46.277Z,528.0000
2024-02-06T11:31:48.549Z,533.0000
2024-02-06T11:32:50.712Z,534.0000
2024-02-06T11:33:52.941Z,535.0000
2024-02-06T11:34:55.237Z,536.0000
2024-02-06T11:35:57.304Z,540.0000
2024-02-06T11:36:59.522Z,541.0000
2024-02-06T11:38:01.704Z,543.0000
2024-02-06T11:39:03.926Z,545.0000
2024-02-06T11:40:06.137Z,541.0000
2024-02-06T11:41:08.121Z,543.0000
2024-02-06T11:42:10.180Z,548.0000
2024-02-06T11:43:12.280Z,549.0000
2024-02-06T11:44:14.318Z,550.0000
2024-02-06T11:45:16.440Z,555.0000
2024-02-06T11:46:18.493Z,559.0000
2024-02-06T11:47:20.569Z,562.0000
2024-02-06T11:48:23.724Z,563.0000
2024-02-06T11:49:25.130Z,565.0000
2024-02-06T11:50:28.311Z,565.0000
2024-02-06T11:51:29.219Z,570.0000
2024-02-06T11:52:31.387Z,571.0000
2024-02-06T11:53:33.564Z,570.0000
2024-02-06T11:54:35.696Z,575.0000
2024-02-06T11:55:38.110Z,577.0000
2024-02-06T11:56:40.017Z,579.0000
2024-02-06T11:57:40.063Z,580.0000
2024-02-06T11:58:42.266Z,584.0000
2024-02-06T11:59:44.398Z,590.0000
2024-02-06T12:00:46.681Z,593.0000
2024-02-06T12:01:48.835Z,597.0000
2024-02-06T12:02:50.956Z,601.0000
2024-02-06T12:03:53.179Z,600.0000
2024-02-06T12:04:55.393Z,604.0000
2024-02-06T12:05:57.732Z,607.0000
2024-02-06T12:06:59.826Z,610.0000
2024-02-06T12:08:04.687Z,612.0000
2024-02-06T12:09:04.315Z,613.0000
2024-02-06T12:10:07.026Z,617.0000